sensor_id;sensor_type;location;lat;lon;timestamp;pressure;altitude;pressure_sealevel;temperature;humidity
4814;BME280;15375;48.540;9.268;2023-02-01T00:01:09;98066.84;;;3.30;100.00
4814;BME280;15375;48.540;9.268;2023-02-01T00:03:35;98042.97;;;3.13;100.00
4814;BME280;15375;48.540;9.268;2023-02-01T00:06:00;98061.28;;;3.23;100.00
4814;BME280;15375;48.540;9.268;2023-02-01T00:08:26;98059.88;;;3.29;100.00
4814;BME280;15375;48.540;9.268;2023-02-01T00:11:03;98070.75;;;3.33;100.00
4814;BME280;15375;48.540;9.268;2023-02-01T00:13:33;98054.25;;;3.18;100.00
4814;BME280;15375;48.540;9.268;2023-02-01T00:16:10;98076.84;;;3.30;100.00
4814;BME280;15375;48.540;9.268;2023-02-01T00:18:37;98063.66;;;3.25;100.00
4814;BME280;15375;48.540;9.268;2023-02-01T00:21:03;98061.44;;;3.30;100.00
4814;BME280;15375;48.540;9.268;2023-02-01T00:23:30;98036.34;;;3.10;100.00
4814;BME280;15375;48.540;9.268;2023-02-01T00:26:00;98054.41;;;3.26;100.00
4814;BME280;15375;48.540;9.268;2023-02-01T00:28:25;98059.19;;;3.32;100.00
4814;BME280;15375;48.540;9.268;2023-02-01T00:30:58;98055.28;;;3.30;100.00
4814;BME280;15375;48.540;9.268;2023-02-01T00:33:23;98033.91;;;3.21;100.00
4814;BME280;15375;48.540;9.268;2023-02-01T00:35:49;98031.91;;;3.18;100.00
4814;BME280;15375;48.540;9.268;2023-02-01T00:38:14;98044.41;;;3.26;100.00
4814;BME280;15375;48.540;9.268;2023-02-01T00:40:40;98027.72;;;3.20;100.00
4814;BME280;15375;48.540;9.268;2023-02-01T00:43:05;98039.88;;;3.30;100.00
4814;BME280;15375;48.540;9.268;2023-02-01T00:45:30;98035.22;;;3.27;100.00
4814;BME280;15375;48.540;9.268;2023-02-01T00:47:56;98041.06;;;3.33;100.00
4814;BME280;15375;48.540;9.268;2023-02-01T00:50:21;98051.31;;;3.43;100.00
4814;BME280;15375;48.540;9.268;2023-02-01T00:52:46;98034.72;;;3.41;100.00
4814;BME280;15375;48.540;9.268;2023-02-01T00:55:12;98012.47;;;3.28;100.00
4814;BME280;15375;48.540;9.268;2023-02-01T00:57:37;98013.28;;;3.29;100.00
4814;BME280;15375;48.540;9.268;2023-02-01T01:00:02;98030.09;;;3.41;100.00
4814;BME280;15375;48.540;9.268;2023-02-01T01:02:28;98020.03;;;3.38;100.00
4814;BME280;15375;48.540;9.268;2023-02-01T01:04:54;98037.13;;;3.46;100.00
4814;BME280;15375;48.540;9.268;2023-02-01T01:07:19;98002.91;;;3.31;100.00
4814;BME280;15375;48.540;9.268;2023-02-01T01:09:44;98006.03;;;3.33;100.00
4814;BME280;15375;48.540;9.268;2023-02-01T01:12:09;98013.78;;;3.34;100.00
4814;BME280;15375;48.540;9.268;2023-02-01T01:14:35;98004.06;;;3.30;100.00
4814;BME280;15375;48.540;9.268;2023-02-01T01:17:00;98019.59;;;3.36;100.00
4814;BME280;15375;48.540;9.268;2023-02-01T01:19:25;98017.31;;;3.38;100.00
4814;BME280;15375;48.540;9.268;2023-02-01T01:21:51;98014.75;;;3.45;100.00
4814;BME280;15375;48.540;9.268;2023-02-01T01:24:16;98008.31;;;3.31;100.00
4814;BME280;15375;48.540;9.268;2023-02-01T01:26:41;97998.31;;;3.31;100.00
4814;BME280;15375;48.540;9.268;2023-02-01T01:29:09;98032.53;;;3.46;100.00
4814;BME280;15375;48.540;9.268;2023-02-01T01:31:35;98000.81;;;3.40;100.00
4814;BME280;15375;48.540;9.268;2023-02-01T01:34:01;97982.03;;;3.28;100.00
4814;BME280;15375;48.540;9.268;2023-02-01T01:36:27;98016.44;;;3.50;100.00
4814;BME280;15375;48.540;9.268;2023-02-01T01:38:53;98010.88;;;3.43;100.00
4814;BME280;15375;48.540;9.268;2023-02-01T01:41:22;98009.88;;;3.51;100.00
4814;BME280;15375;48.540;9.268;2023-02-01T01:44:02;98001.09;;;3.54;100.00
4814;BME280;15375;48.540;9.268;2023-02-01T01:46:37;97993.28;;;3.49;100.00
4814;BME280;15375;48.540;9.268;2023-02-01T01:49:04;98006.56;;;3.57;100.00
4814;BME280;15375;48.540;9.268;2023-02-01T01:51:33;98002.72;;;3.58;100.00
4814;BME280;15375;48.540;9.268;2023-02-01T01:54:14;97993.00;;;3.54;100.00
4814;BME280;15375;48.540;9.268;2023-02-01T01:56:43;97973.97;;;3.47;100.00
4814;BME280;15375;48.540;9.268;2023-02-01T01:59:11;97983.00;;;3.54;100.00
4814;BME280;15375;48.540;9.268;2023-02-01T02:01:36;97998.31;;;3.69;100.00
4814;BME280;15375;48.540;9.268;2023-02-01T02:04:02;97978.84;;;3.60;100.00
4814;BME280;15375;48.540;9.268;2023-02-01T02:06:51;97953.94;;;3.48;100.00
4814;BME280;15375;48.540;9.268;2023-02-01T02:09:20;97958.34;;;3.56;100.00
4814;BME280;15375;48.540;9.268;2023-02-01T02:11:46;97973.25;;;3.69;100.00
4814;BME280;15375;48.540;9.268;2023-02-01T02:14:13;97941.25;;;3.48;100.00
4814;BME280;15375;48.540;9.268;2023-02-01T02:25:22;97971.56;;;3.80;100.00
4814;BME280;15375;48.540;9.268;2023-02-01T02:33:52;97975.63;;;3.93;100.00
4814;BME280;15375;48.540;9.268;2023-02-01T02:38:57;97969.09;;;3.94;100.00
4814;BME280;15375;48.540;9.268;2023-02-01T02:41:32;97971.09;;;3.97;100.00
4814;BME280;15375;48.540;9.268;2023-02-01T02:44:27;97971.09;;;3.97;100.00
4814;BME280;15375;48.540;9.268;2023-02-01T02:48:01;97954.19;;;4.00;100.00
4814;BME280;15375;48.540;9.268;2023-02-01T02:50:35;97948.63;;;3.93;100.00
4814;BME280;15375;48.540;9.268;2023-02-01T02:53:28;97960.00;;;4.02;100.00
4814;BME280;15375;48.540;9.268;2023-02-01T02:56:14;97942.94;;;3.98;100.00
4814;BME280;15375;48.540;9.268;2023-02-01T02:58:59;97942.03;;;3.91;100.00
4814;BME280;15375;48.540;9.268;2023-02-01T03:01:43;97946.72;;;3.94;100.00
4814;BME280;15375;48.540;9.268;2023-02-01T03:04:27;97960.34;;;4.01;100.00
4814;BME280;15375;48.540;9.268;2023-02-01T03:06:53;97962.31;;;4.04;100.00
4814;BME280;15375;48.540;9.268;2023-02-01T03:09:31;97959.63;;;4.04;100.00
4814;BME280;15375;48.540;9.268;2023-02-01T03:12:04;97960.00;;;4.02;100.00
4814;BME280;15375;48.540;9.268;2023-02-01T03:14:54;97944.41;;;3.92;100.00
4814;BME280;15375;48.540;9.268;2023-02-01T03:17:29;97955.69;;;3.98;100.00
4814;BME280;15375;48.540;9.268;2023-02-01T03:19:59;97957.03;;;3.88;100.00
4814;BME280;15375;48.540;9.268;2023-02-01T03:22:28;97965.28;;;3.95;100.00
4814;BME280;15375;48.540;9.268;2023-02-01T03:25:21;97943.38;;;3.77;100.00
4814;BME280;15375;48.540;9.268;2023-02-01T03:28:06;97952.00;;;3.86;100.00
4814;BME280;15375;48.540;9.268;2023-02-01T03:30:38;97949.97;;;3.80;100.00
4814;BME280;15375;48.540;9.268;2023-02-01T03:33:10;97974.91;;;3.96;100.00
4814;BME280;15375;48.540;9.268;2023-02-01T03:36:09;97946.38;;;3.95;100.00
4814;BME280;15375;48.540;9.268;2023-02-01T03:41:44;97949.38;;;3.90;100.00
4814;BME280;15375;48.540;9.268;2023-02-01T03:44:19;97929.63;;;3.86;100.00
4814;BME280;15375;48.540;9.268;2023-02-01T03:46:50;97945.22;;;3.96;100.00
4814;BME280;15375;48.540;9.268;2023-02-01T03:49:24;97931.69;;;3.93;100.00
4814;BME280;15375;48.540;9.268;2023-02-01T03:51:51;97932.03;;;3.91;100.00
4814;BME280;15375;48.540;9.268;2023-02-01T03:54:18;97946.50;;;4.02;100.00
4814;BME280;15375;48.540;9.268;2023-02-01T03:56:46;97943.09;;;4.05;100.00
4814;BME280;15375;48.540;9.268;2023-02-01T03:59:13;97944.63;;;4.06;100.00
4814;BME280;15375;48.540;9.268;2023-02-01T04:01:39;97948.50;;;4.05;100.00
4814;BME280;15375;48.540;9.268;2023-02-01T04:04:05;97919.31;;;3.92;100.00
4814;BME280;15375;48.540;9.268;2023-02-01T04:06:30;97924.00;;;3.95;100.00
4814;BME280;15375;48.540;9.268;2023-02-01T04:08:55;97921.34;;;3.98;100.00
4814;BME280;15375;48.540;9.268;2023-02-01T04:11:21;97924.53;;;4.04;100.00
4814;BME280;15375;48.540;9.268;2023-02-01T04:13:46;97918.66;;;3.98;100.00
4814;BME280;15375;48.540;9.268;2023-02-01T04:16:12;97904.34;;;3.94;100.00
4814;BME280;15375;48.540;9.268;2023-02-01T04:18:37;97899.66;;;3.91;100.00
4814;BME280;15375;48.540;9.268;2023-02-01T04:21:03;97910.94;;;3.97;100.00
4814;BME280;15375;48.540;9.268;2023-02-01T04:23:29;97924.97;;;4.06;100.00
4814;BME280;15375;48.540;9.268;2023-02-01T04:25:59;97863.66;;;3.83;100.00
4814;BME280;15375;48.540;9.268;2023-02-01T04:28:24;97888.50;;;3.93;100.00
4814;BME280;15375;48.540;9.268;2023-02-01T04:30:49;97896.34;;;4.01;100.00
4814;BME280;15375;48.540;9.268;2023-02-01T04:33:15;97871.53;;;3.92;100.00
4814;BME280;15375;48.540;9.268;2023-02-01T04:35:40;97916.84;;;4.06;100.00
4814;BME280;15375;48.540;9.268;2023-02-01T04:38:05;97905.59;;;4.00;100.00
4814;BME280;15375;48.540;9.268;2023-02-01T04:40:32;97927.31;;;4.07;100.00
4814;BME280;15375;48.540;9.268;2023-02-01T04:42:58;97901.22;;;3.92;100.00
4814;BME280;15375;48.540;9.268;2023-02-01T04:45:23;97908.75;;;3.83;100.00
4814;BME280;15375;48.540;9.268;2023-02-01T04:47:49;97942.72;;;4.07;100.00
4814;BME280;15375;48.540;9.268;2023-02-01T04:50:14;97945.06;;;4.08;100.00
4814;BME280;15375;48.540;9.268;2023-02-01T04:52:40;97897.00;;;3.72;100.00
4814;BME280;15375;48.540;9.268;2023-02-01T04:55:07;97933.44;;;4.04;100.00
4814;BME280;15375;48.540;9.268;2023-02-01T04:57:32;97920.94;;;3.96;100.00
4814;BME280;15375;48.540;9.268;2023-02-01T04:59:58;97893.34;;;3.83;100.00
4814;BME280;15375;48.540;9.268;2023-02-01T05:02:23;97887.13;;;3.79;100.00
4814;BME280;15375;48.540;9.268;2023-02-01T05:04:48;97895.13;;;3.95;100.00
4814;BME280;15375;48.540;9.268;2023-02-01T05:07:15;97858.16;;;3.76;100.00
4814;BME280;15375;48.540;9.268;2023-02-01T05:09:40;97862.47;;;3.81;100.00
4814;BME280;15375;48.540;9.268;2023-02-01T05:12:06;97894.81;;;4.00;100.00
4814;BME280;15375;48.540;9.268;2023-02-01T05:14:50;97886.88;;;3.88;100.00
4814;BME280;15375;48.540;9.268;2023-02-01T05:17:15;97904.72;;;3.93;100.00
4814;BME280;15375;48.540;9.268;2023-02-01T05:19:40;97907.34;;;3.89;100.00
4814;BME280;15375;48.540;9.268;2023-02-01T05:22:05;97896.47;;;3.85;100.00
4814;BME280;15375;48.540;9.268;2023-02-01T05:24:31;97893.84;;;3.89;100.00
4814;BME280;15375;48.540;9.268;2023-02-01T05:26:56;97907.94;;;4.02;100.00
4814;BME280;15375;48.540;9.268;2023-02-01T05:29:22;97900.22;;;4.00;100.00
4814;BME280;15375;48.540;9.268;2023-02-01T05:31:47;97905.00;;;4.10;100.00
4814;BME280;15375;48.540;9.268;2023-02-01T05:34:13;97897.72;;;4.14;100.00
4814;BME280;15375;48.540;9.268;2023-02-01T05:36:39;97888.31;;;4.05;100.00
4814;BME280;15375;48.540;9.268;2023-02-01T05:39:05;97884.00;;;4.00;100.00
4814;BME280;15375;48.540;9.268;2023-02-01T05:41:30;97870.75;;;3.92;100.00
4814;BME280;15375;48.540;9.268;2023-02-01T05:43:55;97856.16;;;3.96;100.00
4814;BME280;15375;48.540;9.268;2023-02-01T05:46:21;97892.72;;;4.13;100.00
4814;BME280;15375;48.540;9.268;2023-02-01T05:48:46;97859.59;;;3.93;100.00
4814;BME280;15375;48.540;9.268;2023-02-01T05:51:12;97901.69;;;4.20;100.00
4814;BME280;15375;48.540;9.268;2023-02-01T05:53:37;97881.44;;;4.07;100.00
4814;BME280;15375;48.540;9.268;2023-02-01T05:56:03;97914.31;;;4.13;100.00
4814;BME280;15375;48.540;9.268;2023-02-01T05:58:29;97912.84;;;4.19;100.00
4814;BME280;15375;48.540;9.268;2023-02-01T06:00:55;97906.63;;;4.15;100.00
4814;BME280;15375;48.540;9.268;2023-02-01T06:03:20;97927.19;;;4.23;100.00
4814;BME280;15375;48.540;9.268;2023-02-01T06:05:46;97920.59;;;4.20;100.00
4814;BME280;15375;48.540;9.268;2023-02-01T06:08:13;97922.13;;;4.21;100.00
4814;BME280;15375;48.540;9.268;2023-02-01T06:10:38;97907.84;;;4.21;100.00
4814;BME280;15375;48.540;9.268;2023-02-01T06:13:04;97924.66;;;4.33;100.00
4814;BME280;15375;48.540;9.268;2023-02-01T06:15:30;97913.63;;;4.19;100.00
4814;BME280;15375;48.540;9.268;2023-02-01T06:17:56;97932.28;;;4.28;100.00
4814;BME280;15375;48.540;9.268;2023-02-01T06:20:22;97924.34;;;4.16;100.00
4814;BME280;15375;48.540;9.268;2023-02-01T06:22:47;97905.84;;;4.14;100.00
4814;BME280;15375;48.540;9.268;2023-02-01T06:25:12;97899.53;;;4.07;100.00
4814;BME280;15375;48.540;9.268;2023-02-01T06:27:38;97927.72;;;4.32;100.00
4814;BME280;15375;48.540;9.268;2023-02-01T06:30:05;97933.53;;;4.34;100.00
4814;BME280;15375;48.540;9.268;2023-02-01T06:32:30;97923.88;;;4.33;100.00
4814;BME280;15375;48.540;9.268;2023-02-01T06:34:56;97938.69;;;4.42;100.00
4814;BME280;15375;48.540;9.268;2023-02-01T06:37:22;97929.75;;;4.38;100.00
4814;BME280;15375;48.540;9.268;2023-02-01T06:39:49;97930.94;;;4.41;100.00
4814;BME280;15375;48.540;9.268;2023-02-01T06:42:14;97932.81;;;4.37;100.00
4814;BME280;15375;48.540;9.268;2023-02-01T06:44:40;97965.69;;;4.42;100.00
4814;BME280;15375;48.540;9.268;2023-02-01T06:47:05;97974.22;;;4.44;100.00
4814;BME280;15375;48.540;9.268;2023-02-01T06:49:31;97957.91;;;4.15;100.00
4814;BME280;15375;48.540;9.268;2023-02-01T06:51:56;97979.44;;;4.11;100.00
4814;BME280;15375;48.540;9.268;2023-02-01T06:54:22;97935.75;;;3.83;100.00
4814;BME280;15375;48.540;9.268;2023-02-01T06:56:47;97948.19;;;3.88;100.00
4814;BME280;15375;48.540;9.268;2023-02-01T06:59:13;97923.28;;;3.75;100.00
4814;BME280;15375;48.540;9.268;2023-02-01T07:01:38;97941.28;;;3.90;100.00
4814;BME280;15375;48.540;9.268;2023-02-01T07:04:04;97939.72;;;3.89;100.00
4814;BME280;15375;48.540;9.268;2023-02-01T07:06:29;97922.25;;;3.83;100.00
4814;BME280;15375;48.540;9.268;2023-02-01T07:08:55;97894.44;;;3.79;100.00
4814;BME280;15375;48.540;9.268;2023-02-01T07:11:23;97934.03;;;3.94;100.00
4814;BME280;15375;48.540;9.268;2023-02-01T07:13:49;97915.31;;;3.82;100.00
4814;BME280;15375;48.540;9.268;2023-02-01T07:16:17;97943.72;;;3.99;100.00
4814;BME280;15375;48.540;9.268;2023-02-01T07:18:43;97953.44;;;4.03;100.00
4814;BME280;15375;48.540;9.268;2023-02-01T07:21:08;97948.13;;;4.07;100.00
4814;BME280;15375;48.540;9.268;2023-02-01T07:23:34;97960.94;;;4.13;100.00
4814;BME280;15375;48.540;9.268;2023-02-01T07:26:01;97956.00;;;4.15;100.00
4814;BME280;15375;48.540;9.268;2023-02-01T07:28:30;97924.91;;;4.02;100.00
4814;BME280;15375;48.540;9.268;2023-02-01T07:31:04;97952.50;;;4.15;100.00
4814;BME280;15375;48.540;9.268;2023-02-01T07:33:30;97947.34;;;4.06;100.00
4814;BME280;15375;48.540;9.268;2023-02-01T07:35:56;97948.84;;;4.04;100.00
4814;BME280;15375;48.540;9.268;2023-02-01T07:38:21;97939.00;;;3.92;100.00
4814;BME280;15375;48.540;9.268;2023-02-01T07:40:49;97966.72;;;4.12;100.00
4814;BME280;15375;48.540;9.268;2023-02-01T07:43:14;97933.72;;;3.99;100.00
4814;BME280;15375;48.540;9.268;2023-02-01T07:45:39;97974.16;;;4.18;100.00
4814;BME280;15375;48.540;9.268;2023-02-01T07:48:05;97967.25;;;4.21;100.00
4814;BME280;15375;48.540;9.268;2023-02-01T07:50:30;97950.75;;;4.03;100.00
4814;BME280;15375;48.540;9.268;2023-02-01T07:52:58;97951.13;;;4.02;100.00
4814;BME280;15375;48.540;9.268;2023-02-01T07:55:24;97964.69;;;4.05;100.00
4814;BME280;15375;48.540;9.268;2023-02-01T07:57:49;98004.34;;;4.24;100.00
4814;BME280;15375;48.540;9.268;2023-02-01T08:00:15;97980.72;;;4.17;100.00
4814;BME280;15375;48.540;9.268;2023-02-01T08:02:59;97973.84;;;4.23;100.00
4814;BME280;15375;48.540;9.268;2023-02-01T08:05:25;97966.00;;;4.15;100.00
4814;BME280;15375;48.540;9.268;2023-02-01T08:07:50;97953.59;;;4.10;100.00
4814;BME280;15375;48.540;9.268;2023-02-01T08:10:17;97977.34;;;4.24;100.00
4814;BME280;15375;48.540;9.268;2023-02-01T08:12:43;97972.44;;;4.29;100.00
4814;BME280;15375;48.540;9.268;2023-02-01T08:15:08;97964.56;;;4.21;100.00
4814;BME280;15375;48.540;9.268;2023-02-01T08:17:34;97985.69;;;4.38;100.00
4814;BME280;15375;48.540;9.268;2023-02-01T08:19:59;97984.19;;;4.40;100.00
4814;BME280;15375;48.540;9.268;2023-02-01T08:22:25;97976.69;;;4.30;100.00
4814;BME280;15375;48.540;9.268;2023-02-01T08:24:50;97996.25;;;4.46;100.00
4814;BME280;15375;48.540;9.268;2023-02-01T08:27:16;97979.44;;;4.34;100.00
4814;BME280;15375;48.540;9.268;2023-02-01T08:29:42;97969.66;;;4.26;100.00
4814;BME280;15375;48.540;9.268;2023-02-01T08:32:07;98003.22;;;4.47;100.00
4814;BME280;15375;48.540;9.268;2023-02-01T08:34:32;97979.91;;;4.39;100.00
4814;BME280;15375;48.540;9.268;2023-02-01T08:36:58;97992.94;;;4.57;100.00
4814;BME280;15375;48.540;9.268;2023-02-01T08:39:24;97968.50;;;4.49;100.00
4814;BME280;15375;48.540;9.268;2023-02-01T08:41:50;97944.09;;;4.42;100.00
4814;BME280;15375;48.540;9.268;2023-02-01T08:44:35;97951.94;;;4.51;100.00
4814;BME280;15375;48.540;9.268;2023-02-01T08:47:02;97948.16;;;4.56;100.00
4814;BME280;15375;48.540;9.268;2023-02-01T08:49:27;97974.56;;;4.66;100.00
4814;BME280;15375;48.540;9.268;2023-02-01T08:51:53;97988.19;;;4.73;100.00
4814;BME280;15375;48.540;9.268;2023-02-01T08:54:18;97953.25;;;4.61;100.00
4814;BME280;15375;48.540;9.268;2023-02-01T08:56:43;97953.38;;;4.68;100.00
4814;BME280;15375;48.540;9.268;2023-02-01T08:59:09;97967.38;;;4.77;100.00
4814;BME280;15375;48.540;9.268;2023-02-01T09:01:34;97989.84;;;5.07;100.00
4814;BME280;15375;48.540;9.268;2023-02-01T09:03:59;97992.41;;;5.26;100.00
4814;BME280;15375;48.540;9.268;2023-02-01T09:06:25;97977.88;;;5.08;100.00
4814;BME280;15375;48.540;9.268;2023-02-01T09:08:50;97971.03;;;4.88;100.00
4814;BME280;15375;48.540;9.268;2023-02-01T09:11:17;97999.59;;;4.89;100.00
4814;BME280;15375;48.540;9.268;2023-02-01T09:13:44;97955.97;;;4.61;100.00
4814;BME280;15375;48.540;9.268;2023-02-01T09:16:10;98002.50;;;4.77;100.00
4814;BME280;15375;48.540;9.268;2023-02-01T09:18:36;97976.47;;;4.65;100.00
4814;BME280;15375;48.540;9.268;2023-02-01T09:21:07;97997.78;;;4.70;100.00
4814;BME280;15375;48.540;9.268;2023-02-01T09:23:34;97995.13;;;4.74;100.00
4814;BME280;15375;48.540;9.268;2023-02-01T09:26:00;98003.44;;;4.62;100.00
4814;BME280;15375;48.540;9.268;2023-02-01T09:28:26;98018.22;;;4.68;100.00
4814;BME280;15375;48.540;9.268;2023-02-01T09:30:58;98017.81;;;4.66;100.00
4814;BME280;15375;48.540;9.268;2023-02-01T09:33:25;98005.34;;;4.61;100.00
4814;BME280;15375;48.540;9.268;2023-02-01T09:35:59;98001.22;;;4.67;100.00
4814;BME280;15375;48.540;9.268;2023-02-01T09:38:25;98012.09;;;4.71;100.00
4814;BME280;15375;48.540;9.268;2023-02-01T09:40:52;97987.53;;;4.57;100.00
4814;BME280;15375;48.540;9.268;2023-02-01T09:43:46;97988.41;;;4.64;100.00
4814;BME280;15375;48.540;9.268;2023-02-01T09:46:26;98002.72;;;4.65;100.00
4814;BME280;15375;48.540;9.268;2023-02-01T09:48:58;98001.44;;;4.59;100.00
4814;BME280;15375;48.540;9.268;2023-02-01T09:51:34;98013.22;;;4.70;100.00
4814;BME280;15375;48.540;9.268;2023-02-01T09:54:06;98024.84;;;4.74;100.00
4814;BME280;15375;48.540;9.268;2023-02-01T09:56:47;98031.03;;;4.74;100.00
4814;BME280;15375;48.540;9.268;2023-02-01T09:59:49;98032.19;;;4.73;100.00
4814;BME280;15375;48.540;9.268;2023-02-01T10:02:21;98003.13;;;4.67;100.00
4814;BME280;15375;48.540;9.268;2023-02-01T10:04:48;98023.47;;;4.83;99.47
4814;BME280;15375;48.540;9.268;2023-02-01T10:07:18;98013.13;;;4.89;99.78
4814;BME280;15375;48.540;9.268;2023-02-01T10:13:06;97984.88;;;4.83;97.42
4814;BME280;15375;48.540;9.268;2023-02-01T10:29:45;98017.72;;;5.11;95.01
4814;BME280;15375;48.540;9.268;2023-02-01T10:32:24;98025.69;;;5.04;95.23
4814;BME280;15375;48.540;9.268;2023-02-01T10:34:58;98023.75;;;5.01;94.99
4814;BME280;15375;48.540;9.268;2023-02-01T10:37:29;98040.84;;;5.08;93.65
4814;BME280;15375;48.540;9.268;2023-02-01T10:39:58;98027.59;;;5.00;94.42
4814;BME280;15375;48.540;9.268;2023-02-01T10:42:28;98040.19;;;5.15;94.48
4814;BME280;15375;48.540;9.268;2023-02-01T10:44:56;98038.66;;;5.18;93.82
4814;BME280;15375;48.540;9.268;2023-02-01T10:47:23;98040.06;;;5.08;94.29
4814;BME280;15375;48.540;9.268;2023-02-01T10:55:33;98051.50;;;5.24;93.20
4814;BME280;15375;48.540;9.268;2023-02-01T10:58:02;98050.38;;;5.25;92.32
4814;BME280;15375;48.540;9.268;2023-02-01T11:00:28;98048.06;;;5.27;92.44
4814;BME280;15375;48.540;9.268;2023-02-01T11:02:57;98029.03;;;5.20;91.20
4814;BME280;15375;48.540;9.268;2023-02-01T11:05:22;98018.56;;;5.18;91.33
4814;BME280;15375;48.540;9.268;2023-02-01T11:07:52;98025.31;;;5.32;91.33
4814;BME280;15375;48.540;9.268;2023-02-01T11:10:40;98021.44;;;5.29;90.67
4814;BME280;15375;48.540;9.268;2023-02-01T11:13:13;98003.44;;;5.14;90.79
4814;BME280;15375;48.540;9.268;2023-02-01T11:15:45;98014.03;;;5.26;90.75
4814;BME280;15375;48.540;9.268;2023-02-01T11:18:20;98016.00;;;5.26;90.81
4814;BME280;15375;48.540;9.268;2023-02-01T11:20:47;98002.00;;;5.20;91.54
4814;BME280;15375;48.540;9.268;2023-02-01T11:23:25;98003.09;;;5.15;91.79
4814;BME280;15375;48.540;9.268;2023-02-01T11:25:57;97993.38;;;5.11;91.84
4814;BME280;15375;48.540;9.268;2023-02-01T11:28:30;98020.22;;;5.23;91.99
4814;BME280;15375;48.540;9.268;2023-02-01T11:31:01;98015.13;;;5.18;92.31
4814;BME280;15375;48.540;9.268;2023-02-01T11:33:31;98007.75;;;5.18;90.54
4814;BME280;15375;48.540;9.268;2023-02-01T11:36:05;97998.78;;;5.11;90.63
4814;BME280;15375;48.540;9.268;2023-02-01T11:38:33;98009.22;;;5.12;90.72
4814;BME280;15375;48.540;9.268;2023-02-01T11:41:26;98015.22;;;5.25;91.06
4814;BME280;15375;48.540;9.268;2023-02-01T11:43:57;98012.91;;;5.27;90.22
4814;BME280;15375;48.540;9.268;2023-02-01T11:46:28;97987.75;;;5.23;90.27
4814;BME280;15375;48.540;9.268;2023-02-01T11:48:55;98001.84;;;5.36;90.27
4814;BME280;15375;48.540;9.268;2023-02-01T11:54:17;97966.19;;;5.30;90.08
4814;BME280;15375;48.540;9.268;2023-02-01T11:56:55;97975.84;;;5.31;90.29
4814;BME280;15375;48.540;9.268;2023-02-01T11:59:52;97971.28;;;5.35;90.86
4814;BME280;15375;48.540;9.268;2023-02-01T12:05:20;97935.28;;;5.31;89.67
4814;BME280;15375;48.540;9.268;2023-02-01T12:10:47;97941.25;;;5.44;88.94
4814;BME280;15375;48.540;9.268;2023-02-01T12:13:47;97925.31;;;5.35;89.99
4814;BME280;15375;48.540;9.268;2023-02-01T12:16:21;97949.41;;;5.47;89.09
4814;BME280;15375;48.540;9.268;2023-02-01T12:19:00;97931.72;;;5.53;89.35
4814;BME280;15375;48.540;9.268;2023-02-01T12:27:43;97915.75;;;5.45;88.65
4814;BME280;15375;48.540;9.268;2023-02-01T12:35:45;97916.13;;;5.43;87.30
4814;BME280;15375;48.540;9.268;2023-02-01T12:39:13;97932.00;;;5.45;87.20
4814;BME280;15375;48.540;9.268;2023-02-01T12:41:50;97903.06;;;5.15;86.48
4814;BME280;15375;48.540;9.268;2023-02-01T12:44:48;97944.69;;;5.41;87.47
4814;BME280;15375;48.540;9.268;2023-02-01T12:47:29;97933.09;;;5.40;86.55
4814;BME280;15375;48.540;9.268;2023-02-01T12:50:03;97941.66;;;5.46;87.10
4814;BME280;15375;48.540;9.268;2023-02-01T12:52:45;97926.03;;;5.32;87.04
4814;BME280;15375;48.540;9.268;2023-02-01T12:57:43;97920.63;;;5.32;86.45
4814;BME280;15375;48.540;9.268;2023-02-01T13:00:22;97922.28;;;5.40;83.95
4814;BME280;15375;48.540;9.268;2023-02-01T13:03:29;97924.56;;;5.38;85.75
4814;BME280;15375;48.540;9.268;2023-02-01T13:06:02;97910.94;;;5.31;85.63
4814;BME280;15375;48.540;9.268;2023-02-01T13:09:07;97936.63;;;5.44;85.29
4814;BME280;15375;48.540;9.268;2023-02-01T13:11:38;97928.75;;;5.32;84.99
4814;BME280;15375;48.540;9.268;2023-02-01T13:14:25;97930.00;;;5.38;84.95
4814;BME280;15375;48.540;9.268;2023-02-01T13:16:59;97917.53;;;5.30;84.10
4814;BME280;15375;48.540;9.268;2023-02-01T13:19:41;97929.13;;;5.31;84.60
4814;BME280;15375;48.540;9.268;2023-02-01T13:22:15;97927.81;;;5.21;86.05
4814;BME280;15375;48.540;9.268;2023-02-01T13:24:52;97926.69;;;5.22;86.45
4814;BME280;15375;48.540;9.268;2023-02-01T13:27:19;97927.00;;;5.17;87.37
4814;BME280;15375;48.540;9.268;2023-02-01T13:30:03;97934.41;;;5.20;88.32
4814;BME280;15375;48.540;9.268;2023-02-01T13:41:35;97939.44;;;5.22;89.94
4814;BME280;15375;48.540;9.268;2023-02-01T13:44:21;97912.22;;;5.07;89.61
4814;BME280;15375;48.540;9.268;2023-02-01T13:46:59;97925.47;;;5.16;90.37
4814;BME280;15375;48.540;9.268;2023-02-01T13:49:31;97918.13;;;5.16;90.58
4814;BME280;15375;48.540;9.268;2023-02-01T13:52:01;97914.88;;;5.04;90.69
4814;BME280;15375;48.540;9.268;2023-02-01T13:54:33;97936.69;;;5.18;91.56
4814;BME280;15375;48.540;9.268;2023-02-01T13:57:14;97935.22;;;5.24;92.19
4814;BME280;15375;48.540;9.268;2023-02-01T13:59:52;97930.44;;;5.14;92.72
4814;BME280;15375;48.540;9.268;2023-02-01T14:08:12;97904.03;;;5.04;91.69
4814;BME280;15375;48.540;9.268;2023-02-01T14:13:22;97930.63;;;5.28;91.19
4814;BME280;15375;48.540;9.268;2023-02-01T14:24:16;97924.31;;;5.17;92.59
4814;BME280;15375;48.540;9.268;2023-02-01T14:26:56;97919.53;;;5.07;92.10
4814;BME280;15375;48.540;9.268;2023-02-01T14:29:38;97923.91;;;5.15;92.45
4814;BME280;15375;48.540;9.268;2023-02-01T14:32:11;97918.75;;;5.06;91.96
4814;BME280;15375;48.540;9.268;2023-02-01T14:42:21;97890.03;;;4.95;92.04
4814;BME280;15375;48.540;9.268;2023-02-01T14:44:48;97898.56;;;4.97;91.81
4814;BME280;15375;48.540;9.268;2023-02-01T14:52:36;97913.25;;;4.99;91.63
4814;BME280;15375;48.540;9.268;2023-02-01T14:55:05;97916.50;;;5.08;91.13
4814;BME280;15375;48.540;9.268;2023-02-01T14:57:36;97904.66;;;4.90;91.88
4814;BME280;15375;48.540;9.268;2023-02-01T15:00:17;97913.31;;;5.03;91.43
4814;BME280;15375;48.540;9.268;2023-02-01T15:02:44;97912.53;;;5.02;90.81
4814;BME280;15375;48.540;9.268;2023-02-01T15:05:49;97939.31;;;5.11;90.84
4814;BME280;15375;48.540;9.268;2023-02-01T15:08:24;97923.28;;;4.99;91.12
4814;BME280;15375;48.540;9.268;2023-02-01T15:10:52;97929.13;;;5.01;91.87
4814;BME280;15375;48.540;9.268;2023-02-01T15:13:22;97948.22;;;5.15;91.50
4814;BME280;15375;48.540;9.268;2023-02-01T15:16:15;97954.03;;;5.13;92.24
4814;BME280;15375;48.540;9.268;2023-02-01T15:18:41;97940.75;;;5.05;91.45